Time;durP1;ratioP1;P1;durP2;ratioP2;P2;SDS_P1;SDS_P2;PMS_P1;PMS_P2;Temp;Humidity;BMP_temperature;BMP_pressure;BME280_temperature;BME280_humidity;BME280_pressure;Samples;Min_cycle;Max_cycle;Signal;HPM_P1;HPM_P2
2022/10/10 00:01:31;;;;;;;7.28;3.72;;;4.60;99.90;;;3.13;100.00;100960.28;4965153;28;20051;-86
2022/10/10 00:03:58;;;;;;;8.98;4.10;;;4.60;99.90;;;3.21;100.00;100975.66;4968635;28;20046;-88
2022/10/10 00:06:24;;;;;;;11.23;4.33;;;4.60;99.90;;;3.28;100.00;100963.22;4965817;28;20070;-86
2022/10/10 00:08:51;;;;;;;10.75;4.10;;;4.70;99.90;;;3.23;100.00;100961.03;4963653;28;20336;-86
2022/10/10 00:11:20;;;;;;;8.43;3.90;;;4.70;99.90;;;3.08;100.00;100958.06;4962280;28;20043;-86
2022/10/10 00:13:47;;;;;;;7.38;3.83;;;4.60;99.90;;;2.92;100.00;100957.97;4960542;28;20031;-87
2022/10/10 00:16:15;;;;;;;7.00;4.00;;;4.50;99.90;;;2.79;100.00;100956.56;4965530;28;20920;-86
2022/10/10 00:18:41;;;;;;;10.75;3.63;;;4.30;99.90;;;2.71;100.00;100954.66;4960150;28;20023;-86
2022/10/10 00:21:08;;;;;;;7.60;3.40;;;4.20;99.90;;;2.57;100.00;100953.38;4967002;28;20478;-87
2022/10/10 00:23:34;;;;;;;9.10;3.40;;;4.10;99.90;;;2.41;100.00;100927.16;4964151;28;20034;-85
2022/10/10 00:26:00;;;;;;;10.30;3.72;;;4.10;99.90;;;2.57;100.00;100942.59;4961618;28;20030;-83
2022/10/10 00:28:26;;;;;;;8.45;4.50;;;4.10;99.90;;;2.79;100.00;100939.53;4963828;28;20513;-83
2022/10/10 00:30:52;;;;;;;8.27;4.32;;;4.30;99.90;;;2.91;100.00;100943.63;4980268;28;20030;-83
2022/10/10 00:33:18;;;;;;;8.02;4.55;;;4.40;99.90;;;2.97;100.00;100920.59;4967802;28;20471;-84
2022/10/10 00:35:44;;;;;;;12.60;4.85;;;4.60;99.90;;;3.06;100.00;100930.44;4962013;28;20082;-84
2022/10/10 00:38:10;;;;;;;6.72;4.35;;;4.60;99.90;;;2.94;100.00;100932.56;4962321;28;20070;-86
2022/10/10 00:40:50;;;;;;;12.45;5.03;;;4.50;99.90;;;2.96;100.00;100935.94;4963768;28;20113;-85
2022/10/10 00:43:17;;;;;;;9.65;4.40;;;4.40;99.90;;;2.99;100.00;100937.44;4968188;28;20027;-85
2022/10/10 00:45:46;;;;;;;11.48;5.15;;;4.40;99.90;;;3.14;100.00;100933.16;4965774;28;20035;-85
2022/10/10 00:48:42;;;;;;;8.25;4.15;;;4.50;99.90;;;2.99;100.00;100934.75;4968732;28;20490;-87
2022/10/10 00:51:15;;;;;;;7.82;4.00;;;4.40;99.90;;;2.80;100.00;100930.44;4957123;28;20043;-86
2022/10/10 00:53:49;;;;;;;8.32;3.70;;;4.30;99.90;;;2.69;100.00;100929.72;4962408;28;20414;-85
2022/10/10 00:56:21;;;;;;;6.60;3.53;;;4.20;99.90;;;2.62;100.00;100925.94;4964542;28;20428;-86
2022/10/10 00:58:52;;;;;;;10.00;3.83;;;4.10;99.90;;;2.54;100.00;100928.56;4967280;28;20110;-86
2022/10/10 01:01:18;;;;;;;10.82;3.63;;;4.00;99.90;;;2.42;100.00;100928.84;4967329;28;20031;-86
2022/10/10 01:03:44;;;;;;;7.93;3.47;;;3.90;99.90;;;2.36;100.00;100917.84;4964896;28;20030;-85
2022/10/10 01:06:10;;;;;;;6.28;3.70;;;3.90;99.90;;;2.36;100.00;100907.06;4963258;28;20089;-86
2022/10/10 01:08:37;;;;;;;6.78;3.50;;;3.90;99.90;;;2.31;100.00;100907.53;4961185;28;20419;-86
2022/10/10 01:11:20;;;;;;;11.32;4.32;;;3.90;99.90;;;2.42;100.00;100912.69;4963032;28;20033;-86
2022/10/10 01:14:37;;;;;;;11.50;3.70;;;4.00;99.90;;;2.49;100.00;100914.75;4955445;28;20062;-84
2022/10/10 01:17:28;;;;;;;9.65;3.72;;;4.10;99.90;;;2.35;100.00;100922.38;4973340;28;20606;-85
2022/10/10 01:20:26;;;;;;;13.65;4.00;;;3.90;99.90;;;2.29;100.00;100917.59;4965022;28;20480;-86
2022/10/10 01:23:49;;;;;;;8.20;3.65;;;3.80;99.90;;;2.13;100.00;100912.94;4963382;28;20073;-87
2022/10/10 01:26:59;;;;;;;7.60;3.53;;;3.60;99.90;;;1.94;100.00;100897.81;4961644;28;20035;-86
2022/10/10 01:29:46;;;;;;;;;;;3.50;99.90;;;1.99;100.00;100909.81;4981261;28;20137;-85
2022/10/10 01:32:31;;;;;;;10.70;3.58;;;3.50;99.90;;;2.11;100.00;100898.78;4963967;28;19917;-85
2022/10/10 01:35:39;;;;;;;7.53;4.68;;;3.70;99.90;;;2.23;100.00;100875.16;4966479;28;20027;-85
2022/10/10 01:38:43;;;;;;;8.02;4.05;;;3.80;99.90;;;2.38;100.00;100876.25;4962775;28;20039;-86
2022/10/10 01:41:23;;;;;;;11.80;4.60;;;4.00;99.90;;;2.47;100.00;100879.03;4960403;28;20035;-85
2022/10/10 01:43:58;;;;;;;10.80;4.68;;;4.10;99.90;;;2.39;100.00;100880.69;4964032;28;20027;-85
2022/10/10 01:46:25;;;;;;;10.88;4.63;;;4.00;99.90;;;2.35;100.00;100871.19;4965282;28;20031;-85
2022/10/10 01:48:56;;;;;;;12.50;4.40;;;4.00;99.90;;;2.26;100.00;100872.16;4965091;28;20075;-84
2022/10/10 01:51:37;;;;;;;8.10;4.15;;;3.90;99.90;;;2.08;100.00;100874.88;4963257;28;20102;-83
2022/10/10 01:54:26;;;;;;;5.90;3.47;;;3.60;99.90;;;1.86;100.00;100861.75;4969479;28;20041;-85
2022/10/10 01:57:16;;;;;;;8.63;3.55;;;3.50;99.90;;;1.89;100.00;100867.81;4957714;28;20078;-85
2022/10/10 02:00:08;;;;;;;7.45;3.50;;;3.40;99.90;;;1.84;100.00;100862.91;4965067;28;20581;-86
2022/10/10 02:03:00;;;;;;;7.25;3.72;;;3.40;99.90;;;1.83;100.00;100858.50;4962038;28;20497;-86
2022/10/10 02:05:43;;;;;;;10.35;3.92;;;3.30;99.90;;;1.82;100.00;100863.03;4963990;28;20030;-85
2022/10/10 02:08:33;;;;;;;8.70;4.05;;;3.40;99.90;;;2.06;100.00;100861.56;4959765;28;20252;-85
2022/10/10 02:11:07;;;;;;;10.10;4.10;;;3.60;99.90;;;2.21;100.00;100858.31;4961036;28;20043;-84
2022/10/10 02:13:44;;;;;;;16.10;5.20;;;3.80;99.90;;;2.36;100.00;100845.13;4958776;28;20527;-84
2022/10/10 02:16:30;;;;;;;10.10;4.97;;;3.90;99.90;;;2.39;100.00;100826.81;4963524;28;20478;-84
2022/10/10 02:18:58;;;;;;;9.13;5.13;;;4.00;99.90;;;2.62;100.00;100831.63;4975196;28;20081;-84
2022/10/10 02:21:25;;;;;;;11.50;5.55;;;4.20;99.90;;;2.65;100.00;100842.13;4960937;28;20043;-83
2022/10/10 02:23:57;;;;;;;10.18;5.63;;;4.30;99.90;;;2.69;100.00;100815.69;4959834;28;20026;-84
2022/10/10 02:26:26;;;;;;;13.35;5.10;;;4.40;99.90;;;2.83;100.00;100831.25;4964303;28;20054;-84
2022/10/10 02:28:54;;;;;;;13.48;5.47;;;4.40;99.90;;;2.75;100.00;100825.00;4965104;28;20039;-83
2022/10/10 02:31:44;;;;;;;13.52;5.28;;;4.40;99.90;;;2.62;100.00;100818.16;4968676;28;20042;-83
2022/10/10 02:34:20;;;;;;;13.00;5.43;;;4.30;99.90;;;2.75;100.00;100819.59;4965229;28;20039;-83
2022/10/10 02:36:54;;;;;;;11.98;6.07;;;4.30;99.90;;;2.83;100.00;100827.72;4967119;28;20041;-82
2022/10/10 02:39:27;;;;;;;9.80;5.30;;;4.40;99.90;;;2.94;100.00;100829.28;4965042;28;20487;-82
2022/10/10 02:41:53;;;;;;;11.32;5.13;;;4.50;99.90;;;2.97;100.00;100802.00;4963921;28;20026;-85
2022/10/10 02:44:21;;;;;;;16.70;5.90;;;4.60;99.90;;;3.01;100.00;100820.38;4963995;28;20560;-84
2022/10/10 02:46:47;;;;;;;;;;;4.60;99.90;;;2.95;100.00;100815.66;4967586;28;20031;-83
2022/10/10 02:49:12;;;;;;;10.18;5.20;;;4.60;99.90;;;2.87;100.00;100802.13;4968876;28;19992;-84
2022/10/10 02:51:39;;;;;;;9.55;4.72;;;4.50;99.90;;;2.87;100.00;100818.28;4965646;28;20050;-85
2022/10/10 02:54:06;;;;;;;10.80;5.10;;;4.50;99.90;;;2.80;100.00;100817.25;4968227;28;20126;-85
2022/10/10 02:56:32;;;;;;;13.88;5.28;;;4.40;99.90;;;2.70;100.00;100807.47;4967734;28;20019;-85
2022/10/10 02:58:57;;;;;;;10.85;5.03;;;4.40;99.90;;;2.67;100.00;100797.00;4963705;28;20038;-84
2022/10/10 03:01:23;;;;;;;17.45;5.43;;;4.30;99.90;;;2.69;100.00;100819.25;4963673;28;20038;-84
2022/10/10 03:03:49;;;;;;;18.27;5.50;;;4.30;99.90;;;2.75;100.00;100819.59;4968163;28;20038;-84
2022/10/10 03:06:15;;;;;;;13.10;5.15;;;4.30;99.90;;;2.78;100.00;100814.72;4967891;28;20038;-84
2022/10/10 03:08:41;;;;;;;12.40;5.55;;;4.40;99.90;;;2.75;100.00;100808.81;4965576;28;20117;-84
2022/10/10 03:11:07;;;;;;;12.88;5.07;;;4.40;99.90;;;2.82;100.00;100816.09;4968273;28;20130;-78
2022/10/10 03:13:33;;;;;;;12.98;5.40;;;4.40;99.90;;;2.86;100.00;100812.06;4962279;28;20058;-78
2022/10/10 03:15:58;;;;;;;15.00;5.35;;;4.40;99.90;;;2.88;100.00;100815.44;4962237;28;20085;-78
2022/10/10 03:18:24;;;;;;;12.25;5.28;;;4.50;99.90;;;2.91;100.00;100808.88;4964035;28;20027;-78
2022/10/10 03:20:54;;;;;;;11.38;5.47;;;4.50;99.90;;;2.97;100.00;100810.09;4962399;28;20554;-77
2022/10/10 03:23:22;;;;;;;10.20;5.10;;;4.50;99.90;;;3.06;100.00;100808.25;4964434;28;20548;-76
2022/10/10 03:25:48;;;;;;;11.35;5.22;;;4.60;99.90;;;3.05;100.00;100793.97;4971536;28;20035;-80
2022/10/10 03:28:14;;;;;;;12.85;5.20;;;4.60;99.90;;;3.06;100.00;100801.03;4968974;28;20077;-80
2022/10/10 03:30:40;;;;;;;10.50;5.30;;;4.60;99.90;;;3.19;100.00;100799.72;4966200;28;20066;-80
2022/10/10 03:33:07;;;;;;;12.88;5.38;;;4.70;99.90;;;3.23;100.00;100799.22;4966169;28;20500;-78
2022/10/10 03:35:33;;;;;;;10.38;4.70;;;4.80;99.90;;;3.12;100.00;100794.97;4963857;28;20023;-79
2022/10/10 03:37:59;;;;;;;12.10;5.35;;;4.70;99.90;;;3.01;100.00;100798.81;4962534;28;20478;-77
2022/10/10 03:40:28;;;;;;;9.98;5.50;;;4.60;99.90;;;2.98;100.00;100804.53;4963103;28;20042;-79
2022/10/10 03:42:54;;;;;;;11.65;5.38;;;4.50;99.90;;;2.86;100.00;100790.50;4967563;28;20670;-77
2022/10/10 03:45:20;;;;;;;13.13;4.93;;;4.50;99.90;;;2.80;100.00;100795.69;4967956;28;20035;-78
2022/10/10 03:47:46;;;;;;;13.05;5.20;;;4.40;99.90;;;2.67;100.00;100786.22;4965481;28;20031;-78
2022/10/10 03:50:12;;;;;;;13.60;5.07;;;4.30;99.90;;;2.78;100.00;100797.72;4963298;28;20387;-79
2022/10/10 03:52:38;;;;;;;14.50;5.32;;;4.30;99.90;;;2.73;100.00;100784.72;4961589;28;20046;-79
2022/10/10 03:55:05;;;;;;;11.75;5.10;;;4.40;99.90;;;2.92;100.00;100799.81;4957292;28;20420;-80
2022/10/10 03:57:30;;;;;;;14.65;4.93;;;4.50;99.90;;;2.88;100.00;100784.94;4962511;28;20027;-77
2022/10/10 04:00:06;;;;;;;18.00;5.40;;;4.50;99.90;;;2.92;100.00;100794.41;4964982;28;20054;-77
2022/10/10 04:02:41;;;;;;;8.70;5.28;;;4.50;99.90;;;2.90;100.00;100791.00;4961171;28;21148;-77
2022/10/10 04:05:07;;;;;;;15.23;5.82;;;4.50;99.90;;;2.87;100.00;100785.94;4965590;28;20110;-77
2022/10/10 04:07:33;;;;;;;18.00;5.68;;;4.50;99.90;;;2.86;100.00;100787.81;4962353;28;20031;-77
2022/10/10 04:09:59;;;;;;;11.55;5.82;;;4.40;99.90;;;2.77;100.00;100769.91;4962496;28;20106;-78
2022/10/10 04:12:25;;;;;;;14.02;5.82;;;4.40;99.90;;;2.58;100.00;100749.47;4964459;28;20031;-77
2022/10/10 04:14:50;;;;;;;13.93;5.70;;;4.30;99.90;;;2.63;100.00;100781.31;4965731;28;20445;-78
2022/10/10 04:17:16;;;;;;;15.25;5.80;;;4.30;99.90;;;2.57;100.00;100774.72;4966165;28;20034;-77
2022/10/10 04:19:42;;;;;;;13.52;6.00;;;4.20;99.90;;;2.44;100.00;100770.63;4975123;28;20038;-78
2022/10/10 04:22:08;;;;;;;13.55;5.70;;;4.10;99.90;;;2.41;100.00;100765.56;4961476;28;20494;-79
2022/10/10 04:24:33;;;;;;;14.13;6.15;;;4.00;99.90;;;2.51;100.00;100764.59;4964016;28;20038;-78
2022/10/10 04:26:59;;;;;;;14.65;6.28;;;4.10;99.90;;;2.62;100.00;100767.00;4967596;28;20030;-78
2022/10/10 04:29:25;;;;;;;14.38;6.85;;;4.20;99.90;;;2.63;100.00;100744.44;4965793;28;20093;-77
2022/10/10 04:31:51;;;;;;;15.88;6.38;;;4.20;99.90;;;2.71;100.00;100755.25;4961955;28;20030;-78
2022/10/10 04:34:16;;;;;;;14.35;7.00;;;4.20;99.90;;;2.59;100.00;100745.75;4962357;28;20078;-77
2022/10/10 04:36:42;;;;;;;13.20;6.20;;;4.20;99.90;;;2.48;100.00;100729.91;4961989;28;20039;-79
2022/10/10 04:39:08;;;;;;;12.20;5.70;;;4.20;99.90;;;2.61;100.00;100754.53;4962265;28;20446;-78
2022/10/10 04:41:34;;;;;;;15.30;5.70;;;4.10;99.90;;;2.58;100.00;100754.84;4965570;28;20030;-77
2022/10/10 04:44:00;;;;;;;11.27;5.65;;;4.10;99.90;;;2.80;100.00;100744.50;4966523;28;20117;-77
2022/10/10 04:46:25;;;;;;;13.02;6.18;;;4.20;99.90;;;2.99;100.00;100740.69;4963621;28;20113;-78
2022/10/10 04:48:51;;;;;;;10.90;5.75;;;4.50;99.90;;;2.87;100.00;100743.69;4962378;28;20031;-77
2022/10/10 04:51:18;;;;;;;11.45;5.43;;;4.40;99.90;;;2.72;100.00;100734.53;4957912;28;20054;-77
2022/10/10 04:53:43;;;;;;;12.65;5.80;;;4.30;99.90;;;2.91;100.00;100732.56;4962485;28;20027;-77
2022/10/10 04:56:09;;;;;;;13.57;5.13;;;4.30;99.90;;;2.84;100.00;100733.25;4965899;28;20034;-77
2022/10/10 04:58:35;;;;;;;11.90;5.20;;;4.30;99.90;;;2.83;100.00;100720.78;4965398;28;20035;-79
2022/10/10 05:01:01;;;;;;;9.80;5.28;;;4.30;99.90;;;2.88;100.00;100733.75;4966055;28;20038;-78
2022/10/10 05:03:26;;;;;;;12.93;5.45;;;4.40;99.90;;;3.09;100.00;100718.97;4965909;28;20099;-79
2022/10/10 05:05:52;;;;;;;14.23;5.43;;;4.60;99.90;;;3.40;100.00;100729.97;4966828;28;20053;-78
2022/10/10 05:08:18;;;;;;;11.80;5.28;;;4.80;99.90;;;3.54;100.00;100722.22;4967231;28;20375;-79
2022/10/10 05:10:46;;;;;;;10.75;4.93;;;5.00;99.90;;;3.67;100.00;100732.50;4964823;28;20106;-78
2022/10/10 05:13:14;;;;;;;9.80;5.47;;;5.10;99.90;;;3.66;100.00;100720.88;4965969;28;20041;-78
2022/10/10 05:15:41;;;;;;;13.23;5.80;;;5.10;99.90;;;3.68;100.00;100723.38;4960396;28;20066;-78
2022/10/10 05:18:07;;;;;;;17.67;5.60;;;5.10;99.90;;;3.69;100.00;100714.28;4963519;28;20031;-78
2022/10/10 05:20:35;;;;;;;9.75;5.47;;;5.10;99.90;;;3.67;100.00;100706.38;4961889;28;20133;-79
2022/10/10 05:23:02;;;;;;;10.30;5.13;;;5.20;99.90;;;3.62;100.00;100707.88;4966704;28;20042;-78
2022/10/10 05:25:28;;;;;;;13.75;5.10;;;5.20;99.90;;;3.63;100.00;100706.88;4965098;28;20030;-77
2022/10/10 05:27:54;;;;;;;12.77;5.32;;;5.10;99.90;;;3.48;100.00;100695.91;4966807;28;20023;-77
2022/10/10 05:30:19;;;;;;;14.95;5.72;;;5.00;99.90;;;3.41;100.00;100698.44;4967079;28;20062;-81
2022/10/10 05:32:45;;;;;;;9.23;4.70;;;4.90;99.90;;;3.38;100.00;100702.31;4960822;28;20497;-81
2022/10/10 05:35:11;;;;;;;12.75;5.30;;;4.80;99.90;;;3.34;100.00;100702.81;4966638;28;20038;-78
2022/10/10 05:37:37;;;;;;;12.52;5.03;;;4.80;99.90;;;3.28;100.00;100699.78;4964763;28;20034;-77
2022/10/10 05:40:04;;;;;;;9.07;4.40;;;4.80;99.90;;;3.37;100.00;100708.72;4960042;28;20485;-78
2022/10/10 05:42:29;;;;;;;8.77;4.38;;;4.80;99.90;;;3.35;100.00;100694.56;4962920;28;20039;-77
2022/10/10 05:44:55;;;;;;;10.18;4.50;;;4.80;99.90;;;3.52;100.00;100700.81;4959797;28;20363;-78
2022/10/10 05:47:21;;;;;;;14.40;5.55;;;4.90;99.90;;;3.56;100.00;100699.47;4962520;28;20479;-78
2022/10/10 05:49:47;;;;;;;10.77;4.38;;;5.00;99.90;;;3.64;100.00;100698.63;4961180;28;20406;-77
2022/10/10 05:52:12;;;;;;;10.07;4.55;;;5.10;99.90;;;3.67;100.00;100686.63;4965956;28;20038;-78
2022/10/10 05:54:38;;;;;;;13.15;4.45;;;5.10;99.90;;;3.67;100.00;100692.00;4964870;28;20152;-78
2022/10/10 05:57:04;;;;;;;13.40;4.60;;;5.10;99.90;;;3.73;100.00;100694.88;4966054;28;20045;-78
2022/10/10 05:59:31;;;;;;;8.40;4.55;;;5.20;99.90;;;3.71;100.00;100696.06;4964125;28;20110;-78
2022/10/10 06:01:56;;;;;;;11.40;4.22;;;5.20;99.90;;;3.59;100.00;100682.09;4966319;28;21547;-79
2022/10/10 06:04:22;;;;;;;10.40;4.80;;;5.10;99.90;;;3.64;100.00;100695.06;4966374;28;20034;-77
2022/10/10 06:06:49;;;;;;;11.20;5.40;;;5.10;99.90;;;3.62;100.00;100692.53;4962404;28;20039;-77
2022/10/10 06:09:16;;;;;;;10.40;4.38;;;5.10;99.90;;;3.59;100.00;100688.31;4961070;28;20054;-78
2022/10/10 06:11:42;;;;;;;7.60;4.20;;;5.10;99.90;;;3.53;100.00;100678.22;4963766;28;20386;-78
2022/10/10 06:14:09;;;;;;;10.15;4.43;;;5.00;99.90;;;3.48;100.00;100685.97;4965734;28;20034;-78
2022/10/10 06:16:35;;;;;;;11.35;4.50;;;5.00;99.90;;;3.63;100.00;100687.97;4963676;28;20130;-79
2022/10/10 06:19:02;;;;;;;8.07;4.20;;;5.10;99.90;;;3.92;100.00;100686.56;4962521;28;20397;-78
2022/10/10 06:21:28;;;;;;;10.05;4.40;;;5.30;99.90;;;4.38;100.00;100678.69;4963878;28;20442;-76
2022/10/10 06:23:54;;;;;;;7.70;3.78;;;5.60;99.90;;;4.89;100.00;100699.03;4959572;28;20039;-77
2022/10/10 06:26:19;;;;;;;10.27;3.53;;;6.00;99.90;;;5.23;100.00;100694.25;4954752;28;20039;-75
2022/10/10 06:28:45;;;;;;;7.15;3.15;;;6.40;99.90;;;5.43;100.00;100698.13;4965374;28;20045;-77
2022/10/10 06:31:13;;;;;;;8.27;3.10;;;6.70;99.90;;;5.58;100.00;100691.94;4959617;28;20091;-77
2022/10/10 06:33:42;;;;;;;6.60;3.35;;;6.90;99.90;;;5.71;100.00;100691.31;4953206;28;20501;-77
2022/10/10 06:36:09;;;;;;;5.63;2.80;;;7.00;99.90;;;5.72;100.00;100684.88;4952059;28;20043;-77
2022/10/10 06:38:40;;;;;;;7.68;3.08;;;7.20;99.90;;;5.96;100.00;100699.19;4953978;28;20058;-77
2022/10/10 06:41:07;;;;;;;6.30;2.67;;;7.30;99.90;;;6.02;100.00;100693.94;4957830;28;20478;-78
2022/10/10 06:43:34;;;;;;;9.15;2.83;;;7.40;99.90;;;6.15;100.00;100693.28;4962265;28;20433;-76
2022/10/10 06:46:01;;;;;;;7.05;2.67;;;7.50;99.90;;;6.29;100.00;100693.44;4961576;28;20050;-79
2022/10/10 06:48:33;;;;;;;4.60;1.98;;;7.70;99.90;;;6.43;100.00;100681.78;4958041;28;20093;-80
2022/10/10 06:51:06;;;;;;;7.53;2.35;;;7.90;99.90;;;6.82;100.00;100698.72;4962593;28;20043;-80
2022/10/10 06:53:33;;;;;;;6.38;2.35;;;8.10;99.90;;;7.00;100.00;100700.16;4958010;28;20070;-80
2022/10/10 06:56:00;;;;;;;6.03;2.50;;;8.30;99.90;;;7.11;100.00;100702.38;4958065;28;20026;-75
2022/10/10 06:58:28;;;;;;;5.65;1.85;;;8.40;99.90;;;7.27;100.00;100711.28;4957991;28;20030;-77
2022/10/10 07:00:58;;;;;;;5.60;2.20;;;8.60;99.90;;;7.36;100.00;100706.56;4954364;28;20031;-80
2022/10/10 07:03:25;;;;;;;5.68;2.15;;;8.70;99.90;;;7.45;100.00;100705.41;4960103;28;20035;-79
2022/10/10 07:05:58;;;;;;;6.18;1.92;;;8.80;99.90;;;7.57;100.00;100698.41;4951902;28;20117;-81
2022/10/10 07:08:25;;;;;;;7.65;2.35;;;8.90;99.90;;;7.67;100.00;100698.09;4957486;28;20111;-80
2022/10/10 07:10:51;;;;;;;6.45;2.33;;;9.00;99.90;;;7.69;100.00;100687.88;4959271;28;20041;-79
2022/10/10 07:13:17;;;;;;;6.00;2.10;;;9.10;99.90;;;7.82;100.00;100700.72;4963290;28;20039;-81
2022/10/10 07:15:43;;;;;;;6.40;2.63;;;9.20;99.90;;;7.99;100.00;100689.56;4964626;28;20419;-78
2022/10/10 07:18:09;;;;;;;5.30;2.08;;;9.40;99.90;;;8.18;99.45;100702.41;4970270;28;20033;-82
2022/10/10 07:20:36;;;;;;;8.27;2.47;;;9.50;99.90;;;8.30;99.70;100693.72;4963127;28;20023;-78
2022/10/10 07:23:03;;;;;;;6.43;2.15;;;9.60;99.90;;;8.29;99.12;100675.72;4965452;28;20062;-81
2022/10/10 07:25:29;;;;;;;6.10;2.63;;;9.80;99.90;;;8.54;95.81;100688.84;4966279;28;20328;-77
2022/10/10 07:27:56;;;;;;;8.52;2.63;;;9.90;99.90;;;8.68;94.65;100701.44;4959230;28;20034;-81
2022/10/10 07:30:23;;;;;;;8.50;3.30;;;10.00;99.90;;;8.84;94.66;100707.56;4972547;28;20034;-80
2022/10/10 07:32:51;;;;;;;7.13;3.08;;;10.20;99.90;;;8.99;93.30;100696.53;4959586;28;20037;-76
2022/10/10 07:35:17;;;;;;;6.50;2.97;;;10.30;99.90;;;9.12;92.31;100698.44;4961912;28;20126;-82
2022/10/10 07:37:43;;;;;;;7.07;2.55;;;10.40;99.90;;;9.22;91.47;100707.03;4960803;28;20118;-79
2022/10/10 07:40:10;;;;;;;6.82;2.83;;;10.50;99.90;;;9.33;90.02;100702.88;4963366;28;20390;-79
2022/10/10 07:42:36;;;;;;;6.07;2.58;;;10.60;99.90;;;9.43;89.38;100705.19;4963531;28;20038;-79
2022/10/10 07:45:03;;;;;;;5.90;2.50;;;10.70;99.90;;;9.50;89.86;100706.88;4960564;28;20043;-75
2022/10/10 07:47:29;;;;;;;6.22;2.78;;;10.80;99.90;;;9.63;88.27;100700.59;4965700;28;20030;-78
2022/10/10 07:49:55;;;;;;;8.55;3.05;;;10.90;99.90;;;9.70;88.51;100703.34;4975949;28;20034;-78
2022/10/10 07:52:21;;;;;;;7.68;2.97;;;11.10;99.90;;;9.85;86.69;100700.41;4960148;28;20039;-79
2022/10/10 07:54:47;;;;;;;6.80;2.92;;;11.20;99.90;;;9.97;86.21;100699.75;4958824;28;20039;-80
2022/10/10 07:57:12;;;;;;;8.30;2.72;;;11.30;99.90;;;10.07;85.59;100697.41;4962747;28;20038;-79
2022/10/10 07:59:39;;;;;;;5.55;2.67;;;11.40;99.90;;;10.19;84.27;100693.00;4959346;28;20027;-84
2022/10/10 08:02:05;;;;;;;5.72;2.97;;;11.50;99.90;;;10.25;83.34;100687.72;4963429;28;20045;-80
2022/10/10 08:04:31;;;;;;;7.88;3.17;;;11.60;99.90;;;10.33;83.05;100684.78;4963429;28;20035;-81
2022/10/10 08:06:57;;;;;;;7.47;2.97;;;11.60;99.90;;;10.40;82.91;100687.47;4964410;28;20090;-79
2022/10/10 08:09:23;;;;;;;11.68;3.08;;;11.70;99.90;;;10.55;82.92;100685.38;4962978;28;20035;-82
2022/10/10 08:11:49;;;;;;;6.50;2.80;;;11.80;99.90;;;10.60;82.57;100673.78;4966433;28;20646;-82
2022/10/10 08:14:14;;;;;;;6.03;2.72;;;11.90;99.90;;;10.73;81.42;100681.09;4961528;28;20038;-79
2022/10/10 08:16:40;;;;;;;9.65;3.10;;;12.00;99.90;;;10.83;81.59;100664.25;4962228;28;20030;-79
2022/10/10 08:19:06;;;;;;;6.47;2.95;;;12.10;99.90;;;10.91;80.80;100667.56;4963154;28;20039;-81
2022/10/10 08:21:34;;;;;;;7.00;2.97;;;12.20;99.90;;;11.00;79.58;100672.75;4966252;28;20035;-78
2022/10/10 08:24:00;;;;;;;6.05;2.72;;;12.30;99.90;;;11.12;78.96;100676.47;4968781;28;20049;-81
2022/10/10 08:26:26;;;;;;;8.40;3.25;;;12.40;99.90;;;11.21;79.95;100674.31;4964863;28;20027;-80
2022/10/10 08:28:52;;;;;;;5.97;2.78;;;12.50;99.90;;;11.29;79.31;100675.97;4966268;28;20035;-76
2022/10/10 08:31:20;;;;;;;6.15;2.33;;;12.60;99.90;;;11.33;77.47;100667.06;4968560;28;20057;-81
2022/10/10 08:33:48;;;;;;;7.50;1.88;;;12.70;99.90;;;11.44;78.81;100678.38;4963294;28;20035;-75
2022/10/10 08:36:21;;;;;;;5.75;2.70;;;12.70;99.90;;;11.51;76.46;100674.50;4957475;28;20038;-82
2022/10/10 08:38:47;;;;;;;4.95;2.28;;;12.80;99.90;;;11.59;75.76;100680.78;4965199;28;20075;-78
2022/10/10 08:41:47;;;;;;;7.35;2.55;;;12.80;99.90;;;11.68;76.79;100673.97;4964906;28;20150;-77
2022/10/10 08:44:50;;;;;;;7.38;2.60;;;12.90;99.90;;;11.77;75.03;100671.78;4967983;28;20098;-79
2022/10/10 08:47:48;;;;;;;7.07;2.35;;;13.10;99.90;;;11.82;76.68;100668.38;4971016;28;20045;-77
2022/10/10 08:50:24;;;;;;;12.65;2.92;;;13.10;99.90;;;11.95;74.91;100673.72;4973299;28;20045;-80
2022/10/10 08:53:02;;;;;;;5.95;2.60;;;13.20;99.90;;;12.00;74.33;100670.31;4974033;28;20498;-80
2022/10/10 08:55:38;;;;;;;8.43;2.80;;;13.40;99.90;;;12.13;75.79;100674.84;4971047;28;20094;-79
2022/10/10 08:58:16;;;;;;;5.70;2.58;;;13.40;99.90;;;12.28;74.56;100661.59;4967139;28;20039;-80
2022/10/10 09:00:53;;;;;;;6.53;2.65;;;13.50;99.90;;;12.38;72.42;100669.28;4969156;28;20096;-79
2022/10/10 09:03:45;;;;;;;5.70;2.97;;;13.60;99.90;;;12.57;74.58;100669.28;4965449;28;20042;-80
2022/10/10 09:06:51;;;;;;;6.35;2.70;;;13.70;99.90;;;12.64;73.70;100668.13;4967243;28;20062;-80
2022/10/10 09:09:32;;;;;;;5.00;2.50;;;13.90;99.90;;;12.57;71.32;100631.78;4967951;28;20027;-82
2022/10/10 09:12:26;;;;;;;5.50;2.67;;;14.00;99.90;;;12.78;71.17;100671.53;4961192;28;20332;-80
2022/10/10 09:15:22;;;;;;;10.65;2.78;;;14.00;99.90;;;12.72;70.83;100666.97;4959049;28;20063;-83
2022/10/10 09:18:09;;;;;;;8.65;2.92;;;14.00;99.90;;;12.47;70.98;100634.25;4965232;28;20414;-78
2022/10/10 09:20:51;;;;;;;7.50;2.70;;;14.00;99.90;;;12.79;71.08;100661.41;4960032;28;20023;-80
2022/10/10 09:23:42;;;;;;;7.00;2.75;;;14.00;99.90;;;12.80;71.07;100663.06;4958440;28;20501;-78
2022/10/10 09:26:12;;;;;;;6.20;2.40;;;14.10;99.90;;;12.92;70.15;100654.91;4951709;28;20045;-76
2022/10/10 09:28:47;;;;;;;6.00;2.60;;;14.20;99.90;;;13.02;70.60;100647.00;4954060;28;20035;-78
2022/10/10 09:31:43;;;;;;;9.60;2.97;;;14.30;99.90;;;13.27;69.72;100645.13;4952950;28;20031;-78
2022/10/10 09:34:39;;;;;;;7.25;2.63;;;14.50;99.90;;;13.64;68.40;100631.25;4965044;28;20110;-76
2022/10/10 09:37:19;;;;;;;6.90;2.58;;;14.70;99.90;;;13.70;67.58;100638.56;4960741;28;20066;-79
2022/10/10 09:39:58;;;;;;;6.85;2.80;;;15.20;99.90;;;14.17;66.25;100645.91;4961608;28;20038;-81
2022/10/10 09:42:36;;;;;;;;;;;16.10;99.90;;;14.78;62.38;100647.44;4965451;28;20039;-82
2022/10/10 09:45:15;;;;;;;5.18;1.95;;;16.90;99.30;;;15.08;61.82;100641.69;4966380;28;19985;-81
2022/10/10 09:47:41;;;;;;;4.78;2.20;;;17.60;96.70;;;15.51;60.79;100641.31;4956769;28;20046;-80
2022/10/10 09:50:12;;;;;;;5.32;2.22;;;18.30;94.60;;;16.48;56.78;100646.56;4966095;28;20042;-80
2022/10/10 09:52:38;;;;;;;4.15;2.10;;;19.20;91.70;;;17.73;53.56;100645.00;4958027;28;20038;-82
2022/10/10 09:55:19;;;;;;;4.00;2.10;;;20.00;89.50;;;18.74;49.95;100645.00;4962164;28;20030;-83
2022/10/10 09:57:46;;;;;;;5.85;2.17;;;20.80;83.80;;;20.36;45.40;100643.84;4961604;28;20315;-78
2022/10/10 10:00:18;;;;;;;6.07;2.47;;;21.50;80.90;;;21.88;43.03;100653.66;4958492;28;20501;-79
2022/10/10 10:03:05;;;;;;;8.20;2.42;;;22.10;79.90;;;21.96;40.45;100650.28;4951123;28;20034;-82
2022/10/10 10:05:31;;;;;;;3.92;2.10;;;22.40;76.20;;;22.09;40.57;100657.09;4960406;28;20033;-80
2022/10/10 10:07:57;;;;;;;5.13;2.20;;;22.20;76.10;;;23.34;37.29;100651.56;4964842;28;20050;-80
2022/10/10 10:10:26;;;;;;;5.05;1.95;;;;;;;24.01;35.78;100654.28;4960564;28;20389;-82
2022/10/10 10:12:53;;;;;;;5.05;2.05;;;;;;;23.34;36.20;100654.34;4965166;28;20038;-80
2022/10/10 10:15:30;;;;;;;;;;;;;;;23.89;36.16;100661.19;4966360;28;20038;-83
2022/10/10 10:18:31;;;;;;;;;;;;;;;23.65;35.48;100661.34;4964015;28;19926;-82
2022/10/10 10:21:09;;;;;;;;;;;;;;;24.12;34.21;100669.69;4959956;28;20005;-81
2022/10/10 10:23:49;;;;;;;;;;;22.80;72.60;;;23.12;35.35;100669.69;4962505;28;19921;-79
2022/10/10 10:26:17;;;;;;;;;;;24.20;66.10;;;22.64;37.80;100659.50;4959987;28;19953;-80
2022/10/10 10:28:44;;;;;;;;;;;23.70;68.20;;;23.14;36.76;100674.94;4960986;28;19926;-83
2022/10/10 10:31:25;;;;;;;;;;;23.60;68.40;;;24.41;35.64;100669.41;4956998;28;19918;-79
2022/10/10 10:34:00;;;;;;;;;;;;;;;23.94;34.95;100657.47;4956198;28;19954;-80
2022/10/10 10:36:38;;;;;;;;;;;24.30;67.10;;;23.92;34.84;100663.38;4961989;28;19920;-77
2022/10/10 10:39:07;;;;;;;;;;;;;;;24.66;34.48;100664.44;4957231;28;19921;-78